Time;durP1;ratioP1;P1;durP2;ratioP2;P2;SDS_P1;SDS_P2;PMS_P1;PMS_P2;Temp;Humidity;BMP_temperature;BMP_pressure;BME280_temperature;BME280_humidity;BME280_pressure;Samples;Min_cycle;Max_cycle;Signal;HPM_P1;HPM_P2
2021/12/02 00:02:19;;;;;;;6.97;3.70;;;7.90;79.60;;;;;;4995174;28;20244;-77
2021/12/02 00:04:48;;;;;;;8.20;3.30;;;7.80;79.60;;;;;;4997678;28;20211;-77
2021/12/02 00:07:17;;;;;;;7.63;3.53;;;7.80;79.60;;;;;;5003043;28;20203;-77
2021/12/02 00:09:46;;;;;;;9.37;3.77;;;7.80;79.80;;;;;;5000721;28;20540;-78
2021/12/02 00:12:14;;;;;;;7.67;4.17;;;7.80;79.70;;;;;;5002465;28;20207;-77
2021/12/02 00:14:45;;;;;;;7.37;3.13;;;7.80;79.70;;;;;;4995233;28;21169;-77
2021/12/02 00:17:18;;;;;;;5.37;3.17;;;7.80;79.70;;;;;;4998230;28;20210;-77
2021/12/02 00:22:35;;;;;;;9.33;3.10;;;7.80;79.70;;;;;;5001320;28;21551;-77
2021/12/02 00:25:05;;;;;;;5.83;3.13;;;7.80;79.70;;;;;;4995465;28;20199;-78
2021/12/02 00:27:36;;;;;;;7.13;3.17;;;7.80;79.80;;;;;;4991007;28;20204;-77
2021/12/02 00:30:05;;;;;;;6.20;3.53;;;7.80;79.80;;;;;;4991314;28;20288;-77
2021/12/02 00:32:39;;;;;;;8.10;3.33;;;7.80;79.90;;;;;;5004165;28;20203;-78
2021/12/02 00:35:09;;;;;;;6.63;3.30;;;7.80;80.00;;;;;;4998796;28;20190;-77
2021/12/02 00:37:38;;;;;;;7.27;3.27;;;7.80;80.00;;;;;;4999621;28;20250;-76
2021/12/02 00:40:08;;;;;;;7.07;3.80;;;7.80;80.00;;;;;;5002370;28;20210;-76
2021/12/02 00:42:36;;;;;;;5.63;2.73;;;7.80;80.00;;;;;;5003130;28;20203;-76
2021/12/02 00:45:05;;;;;;;6.43;3.50;;;7.80;79.90;;;;;;4992953;28;20749;-76
2021/12/02 00:47:38;;;;;;;6.20;3.50;;;7.80;79.90;;;;;;5003765;28;20204;-76
2021/12/02 00:50:07;;;;;;;10.67;3.70;;;7.80;79.80;;;;;;4999162;28;20187;-77
2021/12/02 00:52:37;;;;;;;6.73;3.63;;;7.80;79.90;;;;;;5000728;28;20603;-76
2021/12/02 00:55:06;;;;;;;7.97;3.40;;;7.70;79.70;;;;;;4996947;28;20198;-77
2021/12/02 00:57:35;;;;;;;6.30;3.70;;;7.70;79.80;;;;;;4998796;28;20222;-78
2021/12/02 01:00:04;;;;;;;7.70;4.10;;;7.70;79.90;;;;;;5000598;28;20347;-77
2021/12/02 01:02:37;;;;;;;6.70;3.60;;;7.70;80.00;;;;;;5006490;28;20559;-77
2021/12/02 01:05:06;;;;;;;8.40;4.50;;;7.70;80.00;;;;;;4996585;28;20546;-77
2021/12/02 01:07:35;;;;;;;5.60;3.30;;;7.60;79.90;;;;;;5003675;28;20648;-77
2021/12/02 01:10:04;;;;;;;9.33;3.70;;;7.60;79.90;;;;;;5004165;28;20216;-78
2021/12/02 01:12:35;;;;;;;7.13;3.27;;;7.60;79.90;;;;;;5002770;28;20197;-77
2021/12/02 01:15:03;;;;;;;7.67;3.87;;;7.60;79.90;;;;;;5003461;28;20200;-76
2021/12/02 01:17:32;;;;;;;7.57;3.57;;;7.50;79.90;;;;;;4996933;28;20224;-77
2021/12/02 01:20:01;;;;;;;5.83;3.07;;;7.50;80.00;;;;;;5004374;28;20192;-77
2021/12/02 01:22:32;;;;;;;7.83;2.97;;;7.50;80.00;;;;;;5006995;28;20208;-77
2021/12/02 01:25:00;;;;;;;7.47;3.30;;;7.50;80.10;;;;;;4997560;28;20192;-77
2021/12/02 01:27:29;;;;;;;7.43;3.60;;;7.50;80.10;;;;;;5002254;28;20226;-77
2021/12/02 01:29:58;;;;;;;6.87;3.50;;;7.50;80.10;;;;;;5002271;28;20201;-77
2021/12/02 01:32:28;;;;;;;5.83;3.50;;;7.50;80.10;;;;;;5003104;28;20607;-78
2021/12/02 01:34:58;;;;;;;6.90;3.57;;;7.50;80.10;;;;;;4997519;28;20224;-77
2021/12/02 01:37:29;;;;;;;7.33;3.40;;;7.50;80.10;;;;;;5002701;28;20214;-78
2021/12/02 01:39:58;;;;;;;7.00;3.53;;;7.50;80.10;;;;;;5004214;28;20202;-78
2021/12/02 01:42:28;;;;;;;6.67;3.40;;;7.50;80.10;;;;;;5004382;28;20573;-77
2021/12/02 01:44:58;;;;;;;7.20;3.20;;;7.40;80.00;;;;;;5003083;28;20211;-77
2021/12/02 01:47:31;;;;;;;5.17;3.10;;;7.40;80.20;;;;;;5001510;28;20195;-78
2021/12/02 01:50:03;;;;;;;8.35;3.50;;;7.40;80.20;;;;;;4996927;28;20444;-78
2021/12/02 01:52:33;;;;;;;8.50;3.20;;;7.40;80.40;;;;;;5001837;28;20199;-77
2021/12/02 01:55:08;;;;;;;7.83;3.47;;;7.40;80.40;;;;;;4992739;28;20199;-78
2021/12/02 01:57:40;;;;;;;5.57;2.97;;;7.40;80.30;;;;;;5005305;28;20260;-77
2021/12/02 02:00:12;;;;;;;7.53;3.30;;;7.50;80.30;;;;;;4999593;28;20209;-77
2021/12/02 02:02:41;;;;;;;9.17;3.10;;;7.50;80.30;;;;;;5001036;28;20250;-77
2021/12/02 02:05:13;;;;;;;6.23;2.90;;;7.50;80.20;;;;;;4996603;28;20289;-77
2021/12/02 02:07:52;;;;;;;6.90;2.90;;;7.50;80.10;;;;;;5001853;28;20197;-77
2021/12/02 02:10:20;;;;;;;6.13;3.00;;;7.50;80.00;;;;;;4997090;28;20199;-77
2021/12/02 02:12:49;;;;;;;6.10;2.80;;;7.50;80.10;;;;;;5003785;28;20250;-77
2021/12/02 02:15:17;;;;;;;7.77;2.93;;;7.60;80.00;;;;;;4999936;28;20202;-77
2021/12/02 02:17:53;;;;;;;6.50;3.27;;;7.60;79.90;;;;;;5000281;28;20231;-76
2021/12/02 02:20:38;;;;;;;5.73;2.90;;;7.60;79.90;;;;;;4996128;28;20439;-77
2021/12/02 02:23:10;;;;;;;5.67;2.73;;;7.60;79.90;;;;;;4997426;28;20213;-78
2021/12/02 02:25:39;;;;;;;8.97;3.43;;;7.70;79.90;;;;;;4995015;28;20203;-76
2021/12/02 02:28:07;;;;;;;7.73;3.47;;;7.70;79.70;;;;;;5004029;28;20192;-78
2021/12/02 02:30:35;;;;;;;5.40;2.70;;;7.70;79.60;;;;;;5004664;28;20230;-77
2021/12/02 02:33:04;;;;;;;6.90;3.40;;;7.70;79.40;;;;;;5004458;28;20206;-78
2021/12/02 02:35:33;;;;;;;8.43;3.93;;;7.70;79.30;;;;;;5000121;28;20208;-77
2021/12/02 02:38:04;;;;;;;8.67;3.00;;;7.70;79.30;;;;;;5004061;28;20706;-77
2021/12/02 02:40:33;;;;;;;4.93;2.80;;;7.70;79.30;;;;;;5004032;28;20196;-77
2021/12/02 02:43:07;;;;;;;7.77;3.47;;;7.70;79.10;;;;;;5003708;28;20198;-79
2021/12/02 02:45:35;;;;;;;7.27;3.33;;;7.70;79.10;;;;;;5004639;28;20259;-77
2021/12/02 02:48:05;;;;;;;6.70;3.30;;;7.70;79.10;;;;;;5003688;28;20868;-78
2021/12/02 02:50:35;;;;;;;8.23;3.30;;;7.70;79.00;;;;;;5003878;28;20221;-77
2021/12/02 02:53:06;;;;;;;5.70;3.13;;;7.70;79.00;;;;;;5000370;28;20196;-77
2021/12/02 02:55:35;;;;;;;6.77;2.87;;;7.70;79.00;;;;;;5004256;28;20219;-77
2021/12/02 02:58:13;;;;;;;6.90;3.07;;;7.80;79.00;;;;;;5000315;28;20221;-77
2021/12/02 03:00:48;;;;;;;6.53;3.30;;;7.80;79.00;;;;;;5000622;28;20194;-77
2021/12/02 03:03:26;;;;;;;6.23;3.40;;;7.80;78.90;;;;;;5001266;28;20310;-77
2021/12/02 03:06:11;;;;;;;11.83;3.57;;;7.70;78.80;;;;;;5001787;28;20207;-78
2021/12/02 03:08:44;;;;;;;9.67;3.03;;;7.70;78.80;;;;;;4989720;28;20195;-77
2021/12/02 03:11:13;;;;;;;8.47;3.63;;;7.70;78.80;;;;;;4989034;28;20195;-78
2021/12/02 03:13:48;;;;;;;5.63;3.33;;;7.70;78.80;;;;;;4989188;28;20290;-76
2021/12/02 03:19:02;;;;;;;7.47;3.17;;;7.70;78.80;;;;;;4996704;28;20306;-78
2021/12/02 03:21:32;;;;;;;7.23;3.17;;;7.70;78.80;;;;;;5002796;28;20206;-77
2021/12/02 03:24:01;;;;;;;7.17;3.60;;;7.80;78.80;;;;;;5006147;28;20571;-77
2021/12/02 03:26:31;;;;;;;7.27;3.43;;;7.80;78.80;;;;;;5001740;28;20208;-77
2021/12/02 03:29:01;;;;;;;7.40;3.40;;;7.80;78.70;;;;;;4996877;28;20562;-77
2021/12/02 03:31:29;;;;;;;10.33;4.07;;;7.70;78.60;;;;;;5001008;28;20296;-77
2021/12/02 03:33:58;;;;;;;8.03;3.53;;;7.70;78.60;;;;;;4994895;28;20214;-77
2021/12/02 03:36:27;;;;;;;10.10;3.77;;;7.70;78.60;;;;;;5000405;28;20204;-76
2021/12/02 03:38:57;;;;;;;9.50;3.90;;;7.70;78.60;;;;;;5001443;28;20864;-78
2021/12/02 03:41:25;;;;;;;8.57;3.97;;;7.70;78.60;;;;;;5001137;28;20228;-78
2021/12/02 03:43:54;;;;;;;6.93;3.67;;;7.70;78.60;;;;;;4998451;28;20219;-77
2021/12/02 03:46:24;;;;;;;7.73;3.77;;;7.70;78.60;;;;;;4998233;28;20209;-77
2021/12/02 03:48:54;;;;;;;8.70;3.60;;;7.70;78.70;;;;;;5003033;28;20189;-76
2021/12/02 03:51:23;;;;;;;7.70;4.30;;;7.60;78.60;;;;;;5000622;28;20860;-78
2021/12/02 03:53:52;;;;;;;7.37;3.63;;;7.60;78.60;;;;;;4997309;28;20195;-77
2021/12/02 03:56:22;;;;;;;8.87;3.43;;;7.60;78.70;;;;;;5001184;28;20225;-77
2021/12/02 03:58:51;;;;;;;6.60;3.77;;;7.60;78.70;;;;;;5001783;28;20544;-77
2021/12/02 04:01:21;;;;;;;12.60;4.87;;;7.60;78.70;;;;;;5000848;28;20201;-77
2021/12/02 04:03:51;;;;;;;7.37;3.50;;;7.60;78.70;;;;;;4996926;28;20866;-78
2021/12/02 04:06:20;;;;;;;8.80;3.70;;;7.60;78.70;;;;;;4995952;28;20198;-76
2021/12/02 04:08:51;;;;;;;12.73;4.40;;;7.70;78.80;;;;;;4991941;28;20937;-76
2021/12/02 04:11:28;;;;;;;8.57;3.90;;;7.70;78.80;;;;;;4998822;28;20194;-77
2021/12/02 04:14:13;;;;;;;11.87;3.33;;;7.70;78.70;;;;;;5002067;28;20197;-76
2021/12/02 04:16:51;;;;;;;8.60;3.87;;;7.70;78.60;;;;;;5002119;28;20555;-76
2021/12/02 04:19:21;;;;;;;10.47;3.60;;;7.70;78.60;;;;;;4989833;28;20206;-78
2021/12/02 04:21:50;;;;;;;9.80;5.00;;;7.70;78.60;;;;;;5000175;28;20211;-77
2021/12/02 04:24:18;;;;;;;8.73;3.60;;;7.70;78.50;;;;;;4993450;28;20198;-77
2021/12/02 04:26:48;;;;;;;8.67;3.63;;;7.70;78.40;;;;;;4991428;28;20499;-78
2021/12/02 04:29:17;;;;;;;9.60;4.40;;;7.70;78.40;;;;;;5001556;28;20229;-77
2021/12/02 04:31:48;;;;;;;9.47;4.60;;;7.70;78.40;;;;;;5003492;28;20294;-77
2021/12/02 04:34:17;;;;;;;7.47;4.43;;;7.70;78.40;;;;;;5008426;28;20191;-76
2021/12/02 04:36:45;;;;;;;8.27;3.90;;;7.70;78.40;;;;;;5003198;28;20211;-76
2021/12/02 04:39:14;;;;;;;9.87;4.43;;;7.70;78.40;;;;;;5002211;28;20216;-76
2021/12/02 04:41:42;;;;;;;8.23;4.37;;;7.70;78.40;;;;;;4998517;28;20199;-77
2021/12/02 04:44:13;;;;;;;10.27;5.57;;;7.70;78.40;;;;;;4998980;28;20200;-76
2021/12/02 04:46:42;;;;;;;12.30;4.80;;;7.70;78.40;;;;;;4999025;28;20683;-75
2021/12/02 04:49:10;;;;;;;10.23;4.53;;;7.70;78.40;;;;;;4997760;28;20197;-77
2021/12/02 04:51:39;;;;;;;10.40;4.67;;;7.70;78.30;;;;;;5002791;28;20203;-77
2021/12/02 04:54:07;;;;;;;7.77;4.03;;;7.70;78.20;;;;;;5001135;28;20205;-76
2021/12/02 04:56:37;;;;;;;11.10;5.30;;;7.70;78.30;;;;;;4999163;28;20734;-76
2021/12/02 04:59:05;;;;;;;12.60;5.10;;;7.60;78.30;;;;;;5000527;28;20218;-76
2021/12/02 05:01:35;;;;;;;10.33;4.87;;;7.70;78.30;;;;;;5005032;28;20191;-77
2021/12/02 05:04:04;;;;;;;12.97;5.07;;;7.60;78.30;;;;;;4996734;28;20222;-77
2021/12/02 05:06:33;;;;;;;9.17;5.00;;;7.60;78.40;;;;;;5001065;28;20233;-76
2021/12/02 05:09:01;;;;;;;12.87;5.13;;;7.60;78.40;;;;;;5004622;28;20282;-77
2021/12/02 05:11:29;;;;;;;8.77;4.70;;;7.60;78.40;;;;;;5000144;28;20209;-77
2021/12/02 05:13:58;;;;;;;14.17;5.00;;;7.60;78.60;;;;;;5004532;28;20204;-77
2021/12/02 05:16:26;;;;;;;8.53;4.13;;;7.60;78.60;;;;;;5005251;28;20230;-77
2021/12/02 05:18:56;;;;;;;9.50;4.80;;;7.60;78.60;;;;;;4998584;28;20556;-77
2021/12/02 05:21:24;;;;;;;7.37;4.80;;;7.60;78.60;;;;;;5001335;28;20223;-76
2021/12/02 05:23:54;;;;;;;9.27;4.97;;;7.60;78.60;;;;;;4995361;28;20198;-75
2021/12/02 05:26:24;;;;;;;10.20;5.00;;;7.60;78.60;;;;;;4996180;28;20283;-76
2021/12/02 05:28:53;;;;;;;8.37;4.37;;;7.60;78.50;;;;;;4999694;28;20244;-77
2021/12/02 05:31:22;;;;;;;11.93;5.00;;;7.60;78.50;;;;;;5000756;28;20201;-77
2021/12/02 05:33:51;;;;;;;10.93;5.47;;;7.60;78.50;;;;;;4998001;28;20192;-76
2021/12/02 05:36:20;;;;;;;11.17;5.57;;;7.50;78.40;;;;;;5002790;28;20593;-76
2021/12/02 05:38:49;;;;;;;9.63;4.57;;;7.50;78.40;;;;;;5005239;28;20677;-77
2021/12/02 05:41:17;;;;;;;10.03;5.00;;;7.50;78.40;;;;;;5001612;28;20210;-76
2021/12/02 05:43:46;;;;;;;9.63;5.10;;;7.50;78.50;;;;;;5001962;28;20210;-77
2021/12/02 05:46:14;;;;;;;8.40;4.53;;;7.50;78.50;;;;;;4998564;28;20193;-76
2021/12/02 05:48:43;;;;;;;11.60;5.33;;;7.50;78.50;;;;;;5005586;28;20195;-76
2021/12/02 05:51:11;;;;;;;10.27;5.07;;;7.60;78.60;;;;;;5007025;28;20189;-76
2021/12/02 05:53:41;;;;;;;9.17;4.77;;;7.60;79.40;;;;;;5003432;28;20772;-76
2021/12/02 05:56:09;;;;;;;8.60;4.60;;;7.60;78.60;;;;;;5001773;28;20980;-76
2021/12/02 05:58:37;;;;;;;11.00;5.07;;;7.60;78.50;;;;;;5000632;28;20233;-76
2021/12/02 06:01:06;;;;;;;8.33;4.70;;;7.60;78.50;;;;;;4999819;28;20235;-76
2021/12/02 06:03:36;;;;;;;9.30;5.17;;;7.60;78.50;;;;;;4999667;28;20245;-74
2021/12/02 06:06:05;;;;;;;12.27;4.50;;;7.60;78.40;;;;;;5009304;28;20202;-75
2021/12/02 06:08:36;;;;;;;11.80;5.07;;;7.70;78.60;;;;;;5005148;28;20202;-76
2021/12/02 06:11:05;;;;;;;10.27;5.57;;;7.70;78.60;;;;;;5006771;28;20596;-76
2021/12/02 06:13:34;;;;;;;11.77;4.87;;;7.70;78.50;;;;;;5001059;28;20209;-76
2021/12/02 06:16:02;;;;;;;9.23;4.57;;;7.70;78.40;;;;;;5011851;28;20198;-77
2021/12/02 06:18:30;;;;;;;13.37;5.30;;;7.70;78.40;;;;;;5009302;28;20814;-76
2021/12/02 06:20:59;;;;;;;12.97;5.10;;;7.80;78.50;;;;;;5005066;28;20211;-76
2021/12/02 06:23:27;;;;;;;11.47;5.20;;;7.80;78.60;;;;;;5005019;28;20195;-76
2021/12/02 06:25:56;;;;;;;14.47;5.27;;;7.90;78.60;;;;;;5002643;28;20842;-77
2021/12/02 06:28:26;;;;;;;14.07;4.30;;;7.90;78.50;;;;;;5001317;28;20214;-77
2021/12/02 06:30:55;;;;;;;16.80;4.80;;;8.00;78.60;;;;;;5005402;28;20215;-77
2021/12/02 06:33:23;;;;;;;12.30;4.87;;;8.00;78.40;;;;;;5004637;28;20200;-76
2021/12/02 06:35:52;;;;;;;12.20;5.47;;;8.10;78.40;;;;;;5003760;28;20206;-76
2021/12/02 06:38:20;;;;;;;16.53;5.53;;;8.10;78.40;;;;;;5001814;28;20218;-77
2021/12/02 06:40:50;;;;;;;15.77;5.77;;;8.20;78.50;;;;;;4998641;28;20226;-76
2021/12/02 06:43:19;;;;;;;17.07;6.70;;;8.20;78.40;;;;;;4999686;28;20553;-76
2021/12/02 06:45:50;;;;;;;14.03;7.13;;;8.30;78.40;;;;;;5004911;28;20858;-76
2021/12/02 06:48:19;;;;;;;10.50;5.40;;;8.40;78.50;;;;;;4999939;28;20208;-76
2021/12/02 06:50:47;;;;;;;10.77;5.43;;;8.50;78.50;;;;;;4999627;28;20199;-76
2021/12/02 06:53:17;;;;;;;14.60;5.30;;;8.60;78.60;;;;;;4997389;28;20203;-75
2021/12/02 06:55:46;;;;;;;12.17;5.43;;;8.70;78.50;;;;;;5001759;28;20198;-76
2021/12/02 06:58:14;;;;;;;10.23;5.67;;;8.80;78.20;;;;;;5006812;28;20198;-76
2021/12/02 07:00:43;;;;;;;24.53;7.30;;;8.90;77.90;;;;;;5004969;28;20212;-77
2021/12/02 07:03:13;;;;;;;14.93;6.53;;;9.00;77.70;;;;;;5004163;28;20251;-76
2021/12/02 07:05:41;;;;;;;11.33;6.17;;;9.00;77.40;;;;;;5005025;28;21397;-76
2021/12/02 07:08:09;;;;;;;12.17;6.63;;;9.10;77.80;;;;;;5005607;28;20222;-76
2021/12/02 07:10:41;;;;;;;12.70;6.57;;;9.10;76.80;;;;;;5005284;28;20231;-76
2021/12/02 07:13:10;;;;;;;15.10;6.30;;;9.20;76.50;;;;;;5004581;28;20208;-78
2021/12/02 07:15:42;;;;;;;13.27;6.47;;;9.20;76.60;;;;;;5007569;28;20196;-76
2021/12/02 07:18:14;;;;;;;13.47;6.03;;;9.30;76.80;;;;;;5005959;28;20215;-77
2021/12/02 07:20:44;;;;;;;19.13;7.17;;;9.30;76.90;;;;;;5003977;28;20205;-76
2021/12/02 07:23:13;;;;;;;18.30;7.17;;;9.40;76.90;;;;;;5007000;28;20180;-77
2021/12/02 07:25:41;;;;;;;12.37;6.30;;;9.50;76.90;;;;;;5013193;28;20183;-77
2021/12/02 07:28:11;;;;;;;15.33;5.97;;;9.60;76.50;;;;;;5005650;28;20198;-76
2021/12/02 07:30:40;;;;;;;11.87;5.37;;;9.70;76.60;;;;;;5005418;28;20192;-77
2021/12/02 07:33:11;;;;;;;10.03;5.40;;;9.80;76.50;;;;;;5005286;28;20230;-77
2021/12/02 07:35:41;;;;;;;19.10;5.00;;;9.90;76.10;;;;;;5005533;28;20196;-78
2021/12/02 07:38:09;;;;;;;16.27;5.77;;;10.00;76.10;;;;;;5005578;28;20205;-77
2021/12/02 07:40:41;;;;;;;12.97;4.77;;;10.10;75.80;;;;;;5005904;28;20222;-78
2021/12/02 07:43:09;;;;;;;11.40;4.53;;;10.20;75.20;;;;;;5005308;28;20180;-77
2021/12/02 07:45:37;;;;;;;11.10;4.40;;;10.30;75.30;;;;;;5004788;28;20192;-78
2021/12/02 07:48:08;;;;;;;12.27;4.83;;;10.40;75.20;;;;;;5005183;28;20195;-79
2021/12/02 07:50:37;;;;;;;13.67;4.90;;;10.50;74.80;;;;;;5004868;28;20188;-80
2021/12/02 07:53:09;;;;;;;10.77;4.67;;;10.50;73.70;;;;;;5006156;28;20676;-78
2021/12/02 07:55:39;;;;;;;10.03;4.50;;;10.60;74.00;;;;;;5003486;28;20200;-80
2021/12/02 07:58:10;;;;;;;8.90;5.13;;;10.60;73.30;;;;;;5005620;28;20189;-79
2021/12/02 08:00:39;;;;;;;13.43;5.03;;;10.60;73.20;;;;;;5005220;28;20250;-79
2021/12/02 08:03:10;;;;;;;9.03;4.80;;;10.70;73.30;;;;;;5010146;28;20319;-80
2021/12/02 08:05:40;;;;;;;11.37;5.30;;;10.70;73.00;;;;;;5004327;28;20654;-77
2021/12/02 08:08:10;;;;;;;11.47;5.37;;;10.70;72.70;;;;;;5007437;28;20192;-77
2021/12/02 08:10:38;;;;;;;13.30;5.53;;;10.80;72.80;;;;;;5008707;28;20180;-79
2021/12/02 08:13:07;;;;;;;13.00;5.77;;;10.80;73.20;;;;;;4999282;28;20196;-79
2021/12/02 08:15:35;;;;;;;15.53;5.57;;;10.90;73.10;;;;;;5009262;28;20203;-79
2021/12/02 08:18:04;;;;;;;13.27;5.73;;;10.90;73.30;;;;;;5005581;28;20573;-79
2021/12/02 08:20:33;;;;;;;17.57;6.20;;;11.00;73.40;;;;;;5006579;28;20220;-79
2021/12/02 08:23:02;;;;;;;15.20;6.30;;;11.10;73.20;;;;;;5005833;28;20203;-78
2021/12/02 08:25:32;;;;;;;14.13;6.63;;;11.20;73.10;;;;;;5021947;28;20231;-79
2021/12/02 08:28:01;;;;;;;16.20;7.17;;;11.20;73.30;;;;;;5007278;28;20192;-79
2021/12/02 08:30:33;;;;;;;11.90;6.43;;;11.30;73.30;;;;;;5007169;28;20218;-79
2021/12/02 08:33:02;;;;;;;12.23;6.27;;;11.30;72.70;;;;;;5005721;28;20200;-78
2021/12/02 08:35:31;;;;;;;12.10;5.87;;;11.40;73.00;;;;;;5007669;28;20246;-78
2021/12/02 08:38:02;;;;;;;12.30;4.73;;;11.40;72.80;;;;;;5006864;28;20196;-78
2021/12/02 08:40:35;;;;;;;11.83;4.53;;;11.50;72.50;;;;;;5007015;28;20201;-78
2021/12/02 08:43:05;;;;;;;12.17;4.83;;;11.60;72.60;;;;;;5008166;28;20185;-79
2021/12/02 08:45:36;;;;;;;12.73;4.13;;;11.70;72.40;;;;;;5006981;28;20188;-78
2021/12/02 08:48:07;;;;;;;6.93;3.93;;;11.80;72.20;;;;;;5000576;28;20189;-78
2021/12/02 08:50:37;;;;;;;11.13;3.97;;;11.90;71.60;;;;;;5009193;28;20185;-78
2021/12/02 08:53:10;;;;;;;8.70;4.40;;;12.00;71.70;;;;;;5007313;28;20820;-78
2021/12/02 08:55:40;;;;;;;9.97;4.87;;;12.10;71.60;;;;;;5009099;28;20193;-78
2021/12/02 08:58:10;;;;;;;9.77;4.33;;;12.20;71.00;;;;;;5006898;28;20200;-78
2021/12/02 09:00:40;;;;;;;10.23;3.57;;;12.20;70.70;;;;;;5007524;28;20212;-78
2021/12/02 09:03:11;;;;;;;9.10;4.20;;;12.30;69.80;;;;;;4998703;28;20226;-78
2021/12/02 09:05:40;;;;;;;9.63;3.83;;;12.30;69.20;;;;;;5006529;28;20219;-78
2021/12/02 09:08:08;;;;;;;13.37;3.70;;;12.40;68.90;;;;;;5005982;28;20192;-78
2021/12/02 09:10:37;;;;;;;13.33;4.37;;;12.40;68.80;;;;;;5008654;28;20196;-77
2021/12/02 09:13:09;;;;;;;5.97;3.43;;;12.50;68.30;;;;;;5004635;28;20201;-78
2021/12/02 09:15:39;;;;;;;7.37;3.00;;;12.50;68.30;;;;;;5004365;28;20199;-77
2021/12/02 09:18:08;;;;;;;7.83;3.70;;;12.60;68.00;;;;;;5016160;28;20201;-78
2021/12/02 09:20:37;;;;;;;10.30;3.40;;;12.70;68.30;;;;;;5007833;28;20224;-79
2021/12/02 09:23:05;;;;;;;8.00;3.10;;;12.70;68.00;;;;;;5007499;28;20196;-77
2021/12/02 09:25:34;;;;;;;10.33;3.73;;;12.80;68.20;;;;;;5010615;28;20192;-78
2021/12/02 09:28:02;;;;;;;8.23;3.63;;;12.90;68.50;;;;;;5009678;28;20588;-77
2021/12/02 09:30:32;;;;;;;5.80;2.87;;;13.10;68.60;;;;;;5013572;28;20192;-77
2021/12/02 09:33:00;;;;;;;6.70;3.10;;;13.30;68.00;;;;;;5008180;28;20200;-77
2021/12/02 09:35:29;;;;;;;8.57;2.80;;;13.40;68.10;;;;;;5008013;28;20199;-78
2021/12/02 09:37:58;;;;;;;4.67;2.67;;;13.50;68.20;;;;;;5011093;28;20192;-78
2021/12/02 09:40:26;;;;;;;6.93;3.10;;;13.70;67.10;;;;;;5008785;28;20189;-77
2021/12/02 09:42:54;;;;;;;11.83;3.20;;;13.80;67.10;;;;;;5009315;28;20204;-78
2021/12/02 09:45:23;;;;;;;7.07;3.13;;;13.80;67.20;;;;;;5004729;28;20203;-76
2021/12/02 09:47:53;;;;;;;6.33;2.33;;;13.90;67.10;;;;;;5007903;28;20204;-77
2021/12/02 09:50:28;;;;;;;4.97;3.00;;;13.90;64.70;;;;;;5004920;28;20781;-78
2021/12/02 09:53:05;;;;;;;8.33;3.07;;;13.90;65.10;;;;;;5009934;28;20192;-77
2021/12/02 09:55:37;;;;;;;6.17;2.93;;;14.00;65.40;;;;;;5005424;28;20196;-77
2021/12/02 09:58:10;;;;;;;7.17;2.77;;;14.00;64.70;;;;;;5008819;28;20195;-77
2021/12/02 10:00:41;;;;;;;8.63;3.17;;;14.10;65.00;;;;;;5007845;28;20184;-77
2021/12/02 10:03:21;;;;;;;9.03;2.67;;;14.10;65.20;;;;;;5005443;28;20238;-77
2021/12/02 10:06:00;;;;;;;5.83;2.50;;;14.20;65.50;;;;;;5010687;28;20990;-77
2021/12/02 10:08:34;;;;;;;9.57;2.57;;;14.30;65.10;;;;;;5007117;28;20280;-77
2021/12/02 10:11:05;;;;;;;7.87;2.73;;;14.40;65.20;;;;;;5007476;28;20280;-77
2021/12/02 10:13:39;;;;;;;5.27;2.37;;;14.50;65.00;;;;;;5007926;28;20259;-77
2021/12/02 10:16:19;;;;;;;7.00;2.63;;;14.60;64.30;;;;;;5007710;28;20200;-76
2021/12/02 10:18:55;;;;;;;5.57;2.40;;;14.70;64.10;;;;;;5014740;28;20185;-78
2021/12/02 10:21:28;;;;;;;6.93;2.80;;;14.80;62.60;;;;;;5006854;28;20207;-77
2021/12/02 10:24:03;;;;;;;7.03;2.87;;;14.90;62.50;;;;;;5005978;28;20211;-78
2021/12/02 10:26:40;;;;;;;6.00;2.53;;;15.00;62.60;;;;;;5005510;28;20189;-77
2021/12/02 10:29:16;;;;;;;9.53;3.13;;;15.00;61.80;;;;;;5007448;28;20753;-77
2021/12/02 10:31:47;;;;;;;7.67;3.30;;;15.10;61.20;;;;;;5007727;28;20673;-78
2021/12/02 10:34:19;;;;;;;7.67;3.57;;;15.10;60.90;;;;;;5006034;28;20206;-76
2021/12/02 10:36:48;;;;;;;12.30;3.87;;;15.20;61.60;;;;;;5004749;28;20761;-77
2021/12/02 10:39:20;;;;;;;7.27;3.87;;;15.30;61.60;;;;;;5006325;28;20192;-77
2021/12/02 10:42:00;;;;;;;10.73;3.77;;;15.40;61.00;;;;;;5004955;28;20208;-77
2021/12/02 10:44:33;;;;;;;7.93;3.97;;;15.40;61.50;;;;;;5000787;28;20192;-78
2021/12/02 10:47:05;;;;;;;8.73;3.50;;;15.50;61.70;;;;;;5006236;28;20188;-78
2021/12/02 10:49:41;;;;;;;10.23;3.80;;;15.60;60.10;;;;;;5006711;28;20348;-77
2021/12/02 10:52:13;;;;;;;22.47;3.70;;;15.60;60.40;;;;;;5006720;28;20184;-78
2021/12/02 10:54:46;;;;;;;9.20;2.90;;;15.60;58.90;;;;;;5007678;28;20189;-77
2021/12/02 10:57:17;;;;;;;7.47;3.57;;;15.70;59.90;;;;;;5006957;28;20623;-78
2021/12/02 10:59:48;;;;;;;7.50;3.80;;;15.70;59.90;;;;;;5007604;28;20188;-77
2021/12/02 11:02:28;;;;;;;10.67;3.40;;;15.80;60.20;;;;;;5008338;28;20224;-77
2021/12/02 11:05:01;;;;;;;7.33;3.03;;;15.80;60.00;;;;;;5004449;28;20243;-76
2021/12/02 11:07:32;;;;;;;9.97;2.30;;;15.80;59.70;;;;;;5003877;28;20176;-77
2021/12/02 11:10:02;;;;;;;7.37;2.87;;;15.80;59.10;;;;;;5006135;28;20185;-77
2021/12/02 11:12:31;;;;;;;8.00;3.00;;;15.80;58.90;;;;;;5005759;28;20181;-77
2021/12/02 11:15:07;;;;;;;8.53;3.50;;;15.80;58.70;;;;;;5005985;28;20874;-78
2021/12/02 11:17:42;;;;;;;5.60;2.93;;;15.80;58.90;;;;;;5005658;28;20601;-78
2021/12/02 11:20:17;;;;;;;5.33;2.60;;;15.80;58.50;;;;;;5002220;28;20191;-79
2021/12/02 11:22:46;;;;;;;10.17;2.70;;;15.70;58.40;;;;;;5001111;28;20215;-78
2021/12/02 11:25:15;;;;;;;7.07;2.83;;;15.70;58.30;;;;;;5004601;28;20635;-78
2021/12/02 11:27:45;;;;;;;5.00;2.60;;;15.70;58.60;;;;;;5004964;28;20188;-79
2021/12/02 11:30:17;;;;;;;7.47;3.07;;;15.80;59.10;;;;;;5004905;28;20185;-79
2021/12/02 11:32:49;;;;;;;6.87;2.70;;;15.70;59.40;;;;;;5004883;28;20191;-78
2021/12/02 11:35:23;;;;;;;6.70;2.57;;;15.80;59.10;;;;;;4997999;28;20195;-78
2021/12/02 11:37:55;;;;;;;7.77;2.80;;;15.70;58.90;;;;;;5004297;28;20784;-78
2021/12/02 11:40:27;;;;;;;7.57;2.70;;;15.70;58.90;;;;;;5003874;28;20726;-79
2021/12/02 11:42:56;;;;;;;9.17;2.90;;;15.70;58.60;;;;;;4996975;28;20212;-76
2021/12/02 11:45:29;;;;;;;5.23;2.60;;;15.70;58.60;;;;;;4993180;28;20204;-79
2021/12/02 11:47:58;;;;;;;6.03;2.87;;;15.70;58.40;;;;;;5001320;28;20225;-78
2021/12/02 11:50:30;;;;;;;7.00;2.80;;;15.70;58.30;;;;;;4994869;28;20196;-78
2021/12/02 11:52:59;;;;;;;8.37;2.67;;;15.70;58.40;;;;;;4991853;28;20198;-78
2021/12/02 11:55:33;;;;;;;6.27;3.10;;;15.80;58.70;;;;;;4999977;28;20714;-77
2021/12/02 11:58:02;;;;;;;7.33;2.57;;;15.80;58.90;;;;;;5002586;28;20192;-77
2021/12/02 12:00:31;;;;;;;3.97;2.30;;;15.90;58.10;;;;;;5004870;28;20191;-76
2021/12/02 12:03:03;;;;;;;4.60;2.70;;;15.90;57.80;;;;;;5001745;28;20701;-76
2021/12/02 12:05:37;;;;;;;6.10;2.63;;;16.00;57.30;;;;;;5002313;28;20197;-76
2021/12/02 12:08:05;;;;;;;5.53;2.90;;;16.10;57.90;;;;;;5001455;28;20220;-76
2021/12/02 12:10:36;;;;;;;5.27;3.07;;;16.10;57.60;;;;;;4991691;28;20220;-77
2021/12/02 12:13:14;;;;;;;7.63;3.20;;;16.20;57.50;;;;;;5006837;28;20192;-75
2021/12/02 12:15:44;;;;;;;10.63;3.23;;;16.10;56.90;;;;;;4999371;28;20199;-77
2021/12/02 12:18:22;;;;;;;6.77;3.57;;;16.10;57.00;;;;;;4993096;28;20803;-76
2021/12/02 12:21:03;;;;;;;10.20;3.90;;;16.10;57.40;;;;;;5002772;28;20191;-76
2021/12/02 12:23:36;;;;;;;9.07;3.67;;;16.10;57.40;;;;;;4993615;28;20204;-77
2021/12/02 12:26:30;;;;;;;9.73;4.20;;;16.20;57.60;;;;;;4997372;28;20181;-76
2021/12/02 12:29:30;;;;;;;13.17;3.93;;;16.20;57.60;;;;;;4998050;28;20199;-76
2021/12/02 12:35:43;;;;;;;8.47;3.70;;;16.20;57.70;;;;;;4981092;28;20310;-76
2021/12/02 12:38:24;;;;;;;8.20;3.20;;;16.20;57.20;;;;;;4994757;28;20189;-76
2021/12/02 12:40:56;;;;;;;8.93;3.67;;;16.30;57.10;;;;;;4999203;28;20207;-76
2021/12/02 12:43:34;;;;;;;8.53;3.63;;;16.20;57.10;;;;;;5000105;28;20212;-75
2021/12/02 12:46:14;;;;;;;8.83;3.80;;;16.30;57.20;;;;;;4993030;28;20198;-75
2021/12/02 12:48:43;;;;;;;15.90;4.80;;;16.30;57.70;;;;;;5002205;28;20192;-76
2021/12/02 12:51:19;;;;;;;9.77;4.50;;;16.30;58.10;;;;;;4999495;28;20199;-76
2021/12/02 12:53:50;;;;;;;9.60;5.00;;;16.40;58.60;;;;;;5005892;28;20899;-76
2021/12/02 12:56:26;;;;;;;11.80;4.93;;;16.50;58.80;;;;;;5006264;28;20646;-76
2021/12/02 12:59:03;;;;;;;9.57;4.83;;;16.60;59.30;;;;;;5001315;28;20188;-76
2021/12/02 13:01:33;;;;;;;8.53;4.73;;;16.80;58.80;;;;;;5003383;28;20716;-77
2021/12/02 13:04:12;;;;;;;9.30;5.03;;;17.00;59.40;;;;;;5000977;28;20259;-78
2021/12/02 13:07:05;;;;;;;8.15;5.07;;;17.30;59.40;;;;;;5005544;28;20760;-76
2021/12/02 13:09:46;;;;;;;12.50;4.97;;;17.60;59.40;;;;;;5005756;28;20228;-78
2021/12/02 13:12:19;;;;;;;10.25;5.05;;;17.90;58.80;;;;;;5001285;28;20734;-76
2021/12/02 13:14:51;;;;;;;8.95;4.55;;;18.10;58.20;;;;;;5009323;28;20823;-75
2021/12/02 13:17:39;;;;;;;10.93;5.28;;;18.80;56.80;;;;;;5008522;28;20691;-76